createdAt,value
2018-04-06T00:00:38.144Z,101341.75
2018-04-06T00:03:20.386Z,101352.73
2018-04-06T00:05:55.758Z,101356.96
2018-04-06T00:08:30.557Z,101350.50
2018-04-06T00:11:03.162Z,101353.08
2018-04-06T00:13:35.634Z,101356.84
2018-04-06T00:16:08.132Z,101352.27
2018-04-06T00:18:46.770Z,101349.70
2018-04-06T00:21:26.774Z,101360.22
2018-04-06T00:24:00.358Z,101352.98
2018-04-06T00:26:32.854Z,101354.30
2018-04-06T00:29:05.330Z,101363.13
2018-04-06T00:31:37.832Z,101358.81
2018-04-06T00:34:17.092Z,101364.68
2018-04-06T00:36:51.642Z,101369.37
2018-04-06T00:39:28.088Z,101362.19
2018-04-06T00:42:00.664Z,101371.01
2018-04-06T00:44:33.171Z,101367.92
2018-04-06T00:47:05.676Z,101373.83
2018-04-06T00:49:38.155Z,101381.01
2018-04-06T00:52:12.604Z,101373.83
2018-04-06T00:54:53.880Z,101385.28
2018-04-06T00:57:28.776Z,101380.16
2018-04-06T01:00:01.278Z,101380.02
2018-04-06T01:02:33.783Z,101384.76
2018-04-06T01:05:06.259Z,101378.38
2018-04-06T01:07:39.328Z,101388.56
2018-04-06T01:10:13.281Z,101386.45
2018-04-06T01:12:50.710Z,101387.66
2018-04-06T01:15:25.811Z,101390.10
2018-04-06T01:17:58.940Z,101379.91
2018-04-06T01:20:31.641Z,101392.95
2018-04-06T01:23:04.195Z,101384.08
2018-04-06T01:25:36.671Z,101389.88
2018-04-06T01:28:09.620Z,101399.55
2018-04-06T01:30:43.674Z,101388.41
2018-04-06T01:33:29.563Z,101396.63
2018-04-06T01:36:02.207Z,101398.06
2018-04-06T01:38:34.716Z,101400.59
2018-04-06T01:41:07.195Z,101402.28
2018-04-06T01:43:41.446Z,101405.70
2018-04-06T01:46:21.373Z,101399.33
2018-04-06T01:48:56.884Z,101412.83
2018-04-06T01:51:30.107Z,101410.70
2018-04-06T01:54:02.606Z,101414.94
2018-04-06T01:56:35.087Z,101421.27
2018-04-06T01:59:07.586Z,101427.52
2018-04-06T02:01:45.219Z,101420.37
2018-04-06T02:04:20.950Z,101430.91
2018-04-06T02:06:54.518Z,101431.75
2018-04-06T02:09:29.409Z,101432.17
2018-04-06T02:12:02.156Z,101438.15
2018-04-06T02:14:34.633Z,101442.19
2018-04-06T02:17:07.126Z,101446.58
2018-04-06T02:19:41.247Z,101444.06
2018-04-06T02:22:17.449Z,101441.09
2018-04-06T02:24:50.777Z,101439.83
2018-04-06T02:27:24.852Z,101444.95
2018-04-06T02:30:00.150Z,101444.05
2018-04-06T02:32:32.711Z,101442.67
2018-04-06T02:35:05.183Z,101443.14
2018-04-06T02:37:37.696Z,101440.52
2018-04-06T02:40:13.334Z,101444.17
2018-04-06T02:42:50.854Z,101443.34
2018-04-06T02:45:24.485Z,101445.33
2018-04-06T02:47:57.834Z,101447.86
2018-04-06T02:50:30.544Z,101459.30
2018-04-06T02:53:03.078Z,101456.20
2018-04-06T02:55:35.559Z,101459.59
2018-04-06T02:58:08.049Z,101455.44
2018-04-06T03:00:44.591Z,101455.02
2018-04-06T03:03:25.893Z,101455.07
2018-04-06T03:05:59.557Z,101457.49
2018-04-06T03:08:32.195Z,101463.33
2018-04-06T03:11:04.674Z,101471.33
2018-04-06T03:13:37.215Z,101473.69
2018-04-06T03:18:58.655Z,101470.06
2018-04-06T03:21:31.189Z,101481.03
2018-04-06T03:24:03.681Z,101470.02
2018-04-06T03:26:36.193Z,101474.66
2018-04-06T03:29:08.707Z,101474.23
2018-04-06T03:31:46.194Z,101469.16
2018-04-06T03:34:23.291Z,101473.32
2018-04-06T03:36:58.620Z,101471.14
2018-04-06T03:39:31.106Z,101477.39
2018-04-06T03:42:03.583Z,101476.50
2018-04-06T03:44:36.087Z,101471.86
2018-04-06T03:47:08.555Z,101471.50
2018-04-06T03:49:44.233Z,101473.63
2018-04-06T03:52:18.578Z,101464.73
2018-04-06T03:54:58.925Z,101471.38
2018-04-06T03:57:31.615Z,101473.90
2018-04-06T04:00:04.143Z,101478.94
2018-04-06T04:02:36.618Z,101474.20
2018-04-06T04:05:09.439Z,101474.17
2018-04-06T04:07:44.186Z,101472.02
2018-04-06T04:10:18.266Z,101476.16
2018-04-06T04:12:58.551Z,101476.49
2018-04-06T04:15:31.176Z,101476.48
2018-04-06T04:18:03.724Z,101474.67
2018-04-06T04:20:36.249Z,101477.97
2018-04-06T04:23:08.908Z,101480.41
2018-04-06T04:26:09.289Z,101476.53
2018-04-06T04:28:43.471Z,101480.50
2018-04-06T04:31:18.252Z,101476.77
2018-04-06T04:33:56.571Z,101480.14
2018-04-06T04:36:30.513Z,101479.72
2018-04-06T04:39:03.010Z,101485.20
2018-04-06T04:41:35.511Z,101491.17
2018-04-06T04:44:07.990Z,101489.08
2018-04-06T04:46:42.217Z,101495.70
2018-04-06T04:49:29.233Z,101491.95
2018-04-06T04:52:01.790Z,101487.39
2018-04-06T04:54:34.301Z,101498.89
2018-04-06T04:57:06.809Z,101497.22
2018-04-06T04:59:39.929Z,101495.59
2018-04-06T05:02:16.783Z,101501.14
2018-04-06T05:04:50.143Z,101505.50
2018-04-06T05:07:23.314Z,101510.84
2018-04-06T05:09:58.556Z,101516.55
2018-04-06T05:12:31.289Z,101516.55
2018-04-06T05:15:03.852Z,101516.52
2018-04-06T05:17:36.354Z,101517.39
2018-04-06T05:20:08.929Z,101514.87
2018-04-06T05:22:50.218Z,101524.88
2018-04-06T05:25:27.059Z,101529.53
2018-04-06T05:28:00.163Z,101530.00
2018-04-06T05:30:32.729Z,101530.51
2018-04-06T05:33:05.226Z,101527.34
2018-04-06T05:35:37.707Z,101532.66
2018-04-06T05:38:11.579Z,101527.88
2018-04-06T05:40:45.990Z,101526.55
2018-04-06T05:43:19.529Z,101526.52
2018-04-06T05:45:56.619Z,101537.98
2018-04-06T05:48:30.537Z,101536.18
2018-04-06T05:51:03.038Z,101541.46
2018-04-06T05:53:35.530Z,101549.54
2018-04-06T05:56:08.014Z,101554.95
2018-04-06T05:58:44.632Z,101549.67
2018-04-06T06:01:18.936Z,101550.76
2018-04-06T06:03:57.266Z,101558.73
2018-04-06T06:06:30.573Z,101551.84
2018-04-06T06:09:03.107Z,101547.17
2018-04-06T06:11:35.582Z,101555.41
2018-04-06T06:14:08.079Z,101556.70
2018-04-06T06:16:42.229Z,101558.35
2018-04-06T06:19:16.104Z,101571.58
2018-04-06T06:21:50.254Z,101571.12
2018-04-06T06:24:29.155Z,101565.98
2018-04-06T06:27:01.955Z,101580.47
2018-04-06T06:29:34.498Z,101573.28
2018-04-06T06:32:06.982Z,101575.42
2018-04-06T06:34:41.368Z,101581.23
2018-04-06T06:37:17.786Z,101587.14
2018-04-06T06:39:51.787Z,101578.18
2018-04-06T06:42:29.774Z,101585.42
2018-04-06T06:45:02.423Z,101587.17
2018-04-06T06:47:34.902Z,101582.56
2018-04-06T06:50:07.431Z,101585.95
2018-04-06T06:52:45.189Z,101581.33
2018-04-06T06:55:21.976Z,101575.41
2018-04-06T06:57:56.031Z,101577.09
2018-04-06T07:00:29.239Z,101574.12
2018-04-06T07:03:01.742Z,101573.27
2018-04-06T07:05:34.219Z,101574.13
2018-04-06T07:08:06.710Z,101575.38
2018-04-06T07:10:39.450Z,101574.12
2018-04-06T07:13:14.092Z,101566.00
2018-04-06T07:15:55.404Z,101562.20
2018-04-06T07:18:29.179Z,101563.09
2018-04-06T07:21:01.811Z,101583.04
2018-04-06T07:23:34.314Z,101583.03
2018-04-06T07:26:06.842Z,101576.22
2018-04-06T07:28:41.047Z,101580.89
2018-04-06T07:31:19.039Z,101578.35
2018-04-06T07:33:53.146Z,101580.92
2018-04-06T07:36:26.802Z,101578.73
2018-04-06T07:38:59.905Z,101579.56
2018-04-06T07:41:32.398Z,101585.96
2018-04-06T07:44:04.905Z,101584.67
2018-04-06T07:46:37.387Z,101580.44
2018-04-06T07:49:12.847Z,101584.29
2018-04-06T07:51:48.642Z,101578.70
2018-04-06T07:54:26.162Z,101575.27
2018-04-06T07:57:00.178Z,101579.52
2018-04-06T07:59:32.644Z,101569.58
2018-04-06T08:02:05.138Z,101578.01
2018-04-06T08:04:37.650Z,101577.97
2018-04-06T08:07:10.984Z,101575.47
2018-04-06T08:09:47.191Z,101572.09
2018-04-06T08:12:22.180Z,101582.13
2018-04-06T08:14:57.267Z,101580.33
2018-04-06T08:17:30.951Z,101574.69
2018-04-06T08:20:03.458Z,101577.52
2018-04-06T08:22:35.939Z,101581.66
2018-04-06T08:25:08.443Z,101582.05
2018-04-06T08:27:43.399Z,101585.74
2018-04-06T08:30:29.523Z,101574.84
2018-04-06T08:33:04.125Z,101573.64
2018-04-06T08:35:36.627Z,101568.01
2018-04-06T08:38:09.258Z,101569.28
2018-04-06T08:40:44.188Z,101567.10
2018-04-06T08:43:19.125Z,101568.56
2018-04-06T08:45:55.459Z,101574.62
2018-04-06T08:48:30.219Z,101569.16
2018-04-06T08:51:02.699Z,101569.06
2018-04-06T08:53:35.208Z,101558.05
2018-04-06T08:56:07.682Z,101557.21
2018-04-06T08:58:41.337Z,101557.81
2018-04-06T09:01:18.606Z,101559.98
2018-04-06T09:03:54.334Z,101556.45
2018-04-06T09:06:28.866Z,101550.24
2018-04-06T09:09:01.493Z,101552.34
2018-04-06T09:11:33.999Z,101556.04
2018-04-06T09:14:06.494Z,101547.67
2018-04-06T09:16:39.041Z,101556.28
2018-04-06T09:19:15.442Z,101558.75
2018-04-06T09:21:48.691Z,101562.34
2018-04-06T09:24:29.883Z,101561.70
2018-04-06T09:27:02.522Z,101565.31
2018-04-06T09:29:35.021Z,101565.98
2018-04-06T09:32:07.498Z,101564.98
2018-04-06T09:34:41.343Z,101559.83
2018-04-06T09:37:16.054Z,101559.84
2018-04-06T09:39:54.286Z,101561.16
2018-04-06T09:42:30.113Z,101560.81
2018-04-06T09:45:02.686Z,101561.67
2018-04-06T09:47:35.165Z,101562.37
2018-04-06T09:50:07.663Z,101552.05
2018-04-06T09:52:42.216Z,101560.00
2018-04-06T09:55:23.786Z,101559.72
2018-04-06T09:57:59.934Z,101560.16
2018-04-06T10:00:32.553Z,101560.27
2018-04-06T10:03:05.024Z,101552.45
2018-04-06T10:05:37.542Z,101559.27
2018-04-06T10:08:18.209Z,101562.33
2018-04-06T10:10:55.720Z,101560.11
2018-04-06T10:13:30.332Z,101562.85
2018-04-06T10:16:03.027Z,101555.84
2018-04-06T10:18:36.328Z,101549.64
2018-04-06T10:21:08.819Z,101554.41
2018-04-06T10:23:50.694Z,101547.66
2018-04-06T10:26:24.473Z,101539.25
2018-04-06T10:28:58.348Z,101540.65
2018-04-06T10:31:30.846Z,101546.35
2018-04-06T10:34:03.350Z,101539.06
2018-04-06T10:36:35.843Z,101539.53
2018-04-06T10:39:08.341Z,101535.81
2018-04-06T10:41:47.594Z,101539.38
2018-04-06T10:44:24.468Z,101536.34
2018-04-06T10:46:58.146Z,101526.25
2018-04-06T10:49:30.667Z,101525.28
2018-04-06T10:52:03.274Z,101533.52
2018-04-06T10:54:35.768Z,101532.17
2018-04-06T10:57:08.255Z,101528.26
2018-04-06T10:59:42.839Z,101531.11
2018-04-06T11:02:19.924Z,101526.25
2018-04-06T11:04:55.417Z,101519.19
2018-04-06T11:07:28.057Z,101525.36
2018-04-06T11:10:00.580Z,101517.83
2018-04-06T11:12:33.064Z,101517.11
2018-04-06T11:15:05.565Z,101511.84
2018-04-06T11:17:38.035Z,101513.92
2018-04-06T11:20:10.898Z,101523.12
2018-04-06T11:22:43.424Z,101519.66
2018-04-06T11:25:15.929Z,101519.06
2018-04-06T11:27:48.407Z,101517.27
2018-04-06T11:30:20.946Z,101517.40
2018-04-06T11:32:53.419Z,101512.59
2018-04-06T11:35:25.918Z,101506.18
2018-04-06T11:37:58.509Z,101504.77
2018-04-06T11:40:31.062Z,101507.98
2018-04-06T11:43:03.535Z,101504.22
2018-04-06T11:45:36.026Z,101502.86
2018-04-06T11:48:08.502Z,101498.59
2018-04-06T11:50:41.875Z,101497.14
2018-04-06T11:53:14.360Z,101488.95
2018-04-06T11:55:46.871Z,101493.59
2018-04-06T11:58:19.348Z,101491.33
2018-04-06T12:00:51.848Z,101489.03
2018-04-06T12:03:24.333Z,101485.27
2018-04-06T12:05:56.856Z,101485.66
2018-04-06T12:08:29.671Z,101475.73
2018-04-06T12:11:02.222Z,101473.95
2018-04-06T12:13:34.698Z,101460.58
2018-04-06T12:16:07.196Z,101463.36
2018-04-06T12:18:39.933Z,101456.17
2018-04-06T12:21:12.489Z,101451.22
2018-04-06T12:23:45.177Z,101446.09
2018-04-06T12:26:17.736Z,101441.52
2018-04-06T12:28:50.426Z,101428.48
2018-04-06T12:31:22.949Z,101436.66
2018-04-06T12:33:55.422Z,101428.92
2018-04-06T12:36:27.961Z,101422.06
2018-04-06T12:39:00.450Z,101413.92
2018-04-06T12:41:32.951Z,101416.78
2018-04-06T12:44:05.433Z,101409.28
2018-04-06T12:46:37.931Z,101409.75
2018-04-06T12:49:10.419Z,101411.20
2018-04-06T12:51:42.988Z,101407.75
2018-04-06T12:54:15.470Z,101408.00
2018-04-06T12:56:47.983Z,101404.05
2018-04-06T12:59:20.460Z,101397.36
2018-04-06T13:01:52.959Z,101406.39
2018-04-06T13:04:25.434Z,101411.73
2018-04-06T13:06:57.934Z,101409.98
2018-04-06T13:09:30.406Z,101409.45
2018-04-06T13:12:02.908Z,101405.22
2018-04-06T13:14:35.396Z,101401.19
2018-04-06T13:17:07.914Z,101398.16
2018-04-06T13:19:40.399Z,101398.63
2018-04-06T13:22:12.911Z,101395.99
2018-04-06T13:24:45.450Z,101395.16
2018-04-06T13:27:17.958Z,101389.96
2018-04-06T13:29:50.458Z,101390.31
2018-04-06T13:32:22.954Z,101392.95
2018-04-06T13:34:55.451Z,101382.31
2018-04-06T13:37:27.929Z,101377.38
2018-04-06T13:40:00.422Z,101381.12
2018-04-06T13:42:32.902Z,101368.47
2018-04-06T13:45:05.407Z,101373.75
2018-04-06T13:47:37.899Z,101373.02
2018-04-06T13:50:10.394Z,101372.73
2018-04-06T13:52:42.879Z,101367.26
2018-04-06T13:55:15.371Z,101366.84
2018-04-06T13:57:47.850Z,101369.95
2018-04-06T14:00:20.360Z,101363.33
2018-04-06T14:02:52.840Z,101361.31
2018-04-06T14:05:25.336Z,101360.03
2018-04-06T14:07:57.832Z,101356.34
2018-04-06T14:10:30.347Z,101364.61
2018-04-06T14:13:02.823Z,101361.03
2018-04-06T14:15:35.327Z,101368.22
2018-04-06T14:18:07.811Z,101368.53
2018-04-06T14:20:40.318Z,101363.41
2018-04-06T14:23:12.794Z,101361.75
2018-04-06T14:25:45.306Z,101362.31
2018-04-06T14:28:17.778Z,101366.60
2018-04-06T14:30:50.276Z,101355.33
2018-04-06T14:33:22.750Z,101355.77
2018-04-06T14:35:55.237Z,101363.74
2018-04-06T14:38:27.728Z,101355.68
2018-04-06T14:41:00.226Z,101355.59
2018-04-06T14:43:32.707Z,101353.36
2018-04-06T14:46:05.227Z,101351.52
2018-04-06T14:48:37.714Z,101349.55
2018-04-06T14:51:10.251Z,101343.17
2018-04-06T14:53:42.712Z,101339.25
2018-04-06T14:56:15.204Z,101345.14
2018-04-06T14:58:47.678Z,101348.91
2018-04-06T15:01:20.171Z,101343.81
2018-04-06T15:03:52.663Z,101335.30
2018-04-06T15:06:25.167Z,101338.34
2018-04-06T15:08:57.647Z,101336.04
2018-04-06T15:11:30.146Z,101332.14
2018-04-06T15:14:02.625Z,101331.48
2018-04-06T15:16:35.124Z,101320.80
2018-04-06T15:19:07.597Z,101320.31
2018-04-06T15:21:41.290Z,101319.77
2018-04-06T15:24:13.770Z,101314.38
2018-04-06T15:26:46.266Z,101302.38
2018-04-06T15:29:18.738Z,101305.78
2018-04-06T15:31:51.225Z,101308.13
2018-04-06T15:34:23.707Z,101308.69
2018-04-06T15:36:56.202Z,101310.36
2018-04-06T15:39:28.676Z,101307.16
2018-04-06T15:42:01.178Z,101289.73
2018-04-06T15:44:33.656Z,101285.95
2018-04-06T15:47:06.155Z,101292.45
2018-04-06T15:49:38.631Z,101281.77
2018-04-06T15:52:11.139Z,101285.92
2018-04-06T15:54:43.606Z,101283.32
2018-04-06T15:57:16.106Z,101282.91
2018-04-06T15:59:48.584Z,101281.28
2018-04-06T16:02:21.078Z,101279.19
2018-04-06T16:04:53.546Z,101266.42
2018-04-06T16:07:26.046Z,101261.34
2018-04-06T16:09:58.519Z,101259.78
2018-04-06T16:12:31.018Z,101248.66
2018-04-06T16:15:03.505Z,101249.33
2018-04-06T16:17:35.995Z,101249.34
2018-04-06T16:20:08.480Z,101240.98
2018-04-06T16:22:41.037Z,101246.53
2018-04-06T16:25:13.529Z,101236.93
2018-04-06T16:27:46.026Z,101230.80
2018-04-06T16:30:18.499Z,101234.83
2018-04-06T16:32:50.994Z,101227.11
2018-04-06T16:35:23.471Z,101237.55
2018-04-06T16:37:56.956Z,101228.01
2018-04-06T16:40:29.426Z,101226.93
2018-04-06T16:43:01.925Z,101228.64
2018-04-06T16:45:34.407Z,101226.33
2018-04-06T16:48:06.911Z,101223.41
2018-04-06T16:50:39.386Z,101217.66
2018-04-06T16:53:11.886Z,101214.25
2018-04-06T16:55:44.366Z,101215.29
2018-04-06T16:58:16.864Z,101212.89
2018-04-06T17:00:49.354Z,101216.41
2018-04-06T17:03:21.846Z,101210.05
2018-04-06T17:05:54.323Z,101211.34
2018-04-06T17:08:26.827Z,101209.92
2018-04-06T17:10:59.347Z,101221.38
2018-04-06T17:13:31.830Z,101219.23
2018-04-06T17:16:04.325Z,101233.11
2018-04-06T17:18:36.799Z,101228.20
2018-04-06T17:21:10.145Z,101225.62
2018-04-06T17:23:42.618Z,101222.58
2018-04-06T17:26:15.120Z,101228.98
2018-04-06T17:28:47.590Z,101225.69
2018-04-06T17:31:20.086Z,101226.75
2018-04-06T17:33:52.557Z,101224.88
2018-04-06T17:36:25.055Z,101228.20
2018-04-06T17:38:57.528Z,101229.09
2018-04-06T17:41:30.228Z,101227.84
2018-04-06T17:44:02.744Z,101229.75
2018-04-06T17:46:35.242Z,101234.42
2018-04-06T17:49:07.744Z,101231.59
2018-04-06T17:51:40.286Z,101231.70
2018-04-06T17:54:12.775Z,101230.69
2018-04-06T17:56:45.274Z,101227.22
2018-04-06T17:59:17.742Z,101227.55
2018-04-06T18:01:50.243Z,101229.52
2018-04-06T18:04:22.718Z,101229.75
2018-04-06T18:06:55.210Z,101235.62
2018-04-06T18:09:27.680Z,101232.36
2018-04-06T18:12:00.180Z,101234.23
2018-04-06T18:14:32.662Z,101219.48
2018-04-06T18:17:05.155Z,101229.87
2018-04-06T18:19:37.631Z,101231.40
2018-04-06T18:22:10.151Z,101228.84
2018-04-06T18:24:42.637Z,101229.83
2018-04-06T18:27:15.135Z,101234.36
2018-04-06T18:29:47.607Z,101237.89
2018-04-06T18:32:20.115Z,101238.45
2018-04-06T18:34:52.591Z,101236.46
2018-04-06T18:37:25.091Z,101238.32
2018-04-06T18:39:57.586Z,101245.56
2018-04-06T18:42:30.198Z,101247.45
2018-04-06T18:45:02.667Z,101249.59
2018-04-06T18:47:35.159Z,101252.39
2018-04-06T18:50:07.696Z,101249.53
2018-04-06T18:52:40.280Z,101255.49
2018-04-06T18:55:12.769Z,101249.27
2018-04-06T18:57:45.273Z,101255.28
2018-04-06T19:00:17.759Z,101257.33
2018-04-06T19:02:50.258Z,101248.99
2018-04-06T19:05:22.735Z,101256.08
2018-04-06T19:07:55.361Z,101248.59
2018-04-06T19:10:27.931Z,101248.15
2018-04-06T19:13:00.423Z,101253.37
2018-04-06T19:15:32.991Z,101246.59
2018-04-06T19:18:05.488Z,101247.14
2018-04-06T19:20:38.172Z,101244.14
2018-04-06T19:23:10.770Z,101240.80
2018-04-06T19:25:43.295Z,101242.84
2018-04-06T19:28:15.875Z,101236.39
2018-04-06T19:30:48.357Z,101247.11
2018-04-06T19:33:20.853Z,101242.14
2018-04-06T19:35:53.339Z,101245.31
2018-04-06T19:38:25.834Z,101244.05
2018-04-06T19:40:58.320Z,101240.78
2018-04-06T19:43:30.867Z,101237.94
2018-04-06T19:46:03.347Z,101246.34
2018-04-06T19:48:35.834Z,101242.15
2018-04-06T19:51:08.302Z,101247.67
2018-04-06T19:53:40.804Z,101244.35
2018-04-06T19:56:13.314Z,101239.71
2018-04-06T19:58:45.944Z,101236.78
2018-04-06T20:01:18.520Z,101237.63
2018-04-06T20:03:51.041Z,101237.72
2018-04-06T20:06:23.515Z,101230.56
2018-04-06T20:08:56.015Z,101231.47
2018-04-06T20:11:28.502Z,101228.91
2018-04-06T20:14:01.081Z,101231.41
2018-04-06T20:16:33.583Z,101220.41
2018-04-06T20:19:06.223Z,101222.09
2018-04-06T20:21:40.604Z,101211.96
2018-04-06T20:24:13.099Z,101213.78
2018-04-06T20:26:45.572Z,101212.20
2018-04-06T20:29:18.072Z,101207.88
2018-04-06T20:31:50.546Z,101208.71
2018-04-06T20:34:23.039Z,101212.59
2018-04-06T20:36:55.557Z,101206.67
2018-04-06T20:39:32.475Z,101200.30
2018-04-06T20:42:08.556Z,101199.48
2018-04-06T20:44:43.687Z,101196.07
2018-04-06T20:47:17.662Z,101202.03
2018-04-06T20:49:50.332Z,101201.58
2018-04-06T20:52:23.250Z,101197.36
2018-04-06T20:54:55.997Z,101191.85
2018-04-06T20:57:28.801Z,101190.58
2018-04-06T21:00:01.578Z,101185.50
2018-04-06T21:02:34.525Z,101179.63
2018-04-06T21:05:07.274Z,101176.16
2018-04-06T21:07:40.058Z,101172.36
2018-04-06T21:10:13.122Z,101168.14
2018-04-06T21:12:45.917Z,101170.26
2018-04-06T21:15:18.564Z,101163.45
2018-04-06T21:17:51.364Z,101172.30
2018-04-06T21:20:24.180Z,101167.64
2018-04-06T21:22:56.891Z,101164.73
2018-04-06T21:25:29.535Z,101168.91
2018-04-06T21:28:02.274Z,101164.70
2018-04-06T21:30:35.164Z,101160.30
2018-04-06T21:33:07.656Z,101159.00
2018-04-06T21:35:40.277Z,101158.49
2018-04-06T21:38:12.841Z,101150.08
2018-04-06T21:40:45.932Z,101148.41
2018-04-06T21:43:18.691Z,101145.47
2018-04-06T21:45:51.228Z,101143.77
2018-04-06T21:48:23.750Z,101132.77
2018-04-06T21:50:56.222Z,101139.19
2018-04-06T21:53:28.722Z,101146.02
2018-04-06T21:56:01.195Z,101140.97
2018-04-06T21:58:33.686Z,101144.39
2018-04-06T22:01:06.161Z,101147.83
2018-04-06T22:03:40.114Z,101144.44
2018-04-06T22:06:12.868Z,101139.36
2018-04-06T22:08:45.715Z,101132.95
2018-04-06T22:11:19.003Z,101124.53
2018-04-06T22:13:51.751Z,101126.64
2018-04-06T22:16:24.699Z,101123.70
2018-04-06T22:18:57.450Z,101116.52
2018-04-06T22:21:29.952Z,101106.66
2018-04-06T22:24:02.445Z,101098.64
2018-04-06T22:26:34.918Z,101106.62
2018-04-06T22:29:07.435Z,101103.33
2018-04-06T22:31:40.369Z,101104.73
2018-04-06T22:34:14.267Z,101107.29
2018-04-06T22:36:47.477Z,101109.50
2018-04-06T22:39:20.729Z,101105.19
2018-04-06T22:41:53.756Z,101102.88
2018-04-06T22:44:26.650Z,101097.25
2018-04-06T22:46:59.399Z,101102.90
2018-04-06T22:49:32.130Z,101098.72
2018-04-06T22:52:04.923Z,101092.34
2018-04-06T22:54:37.497Z,101092.74
2018-04-06T22:57:10.945Z,101095.80
2018-04-06T22:59:45.826Z,101089.81
2018-04-06T23:02:19.697Z,101091.55
2018-04-06T23:04:53.170Z,101090.27
2018-04-06T23:07:26.544Z,101087.20
2018-04-06T23:09:59.199Z,101082.66
2018-04-06T23:12:31.682Z,101075.38
2018-04-06T23:15:04.609Z,101076.34
2018-04-06T23:17:37.381Z,101069.89
2018-04-06T23:20:09.958Z,101068.62
2018-04-06T23:22:45.140Z,101070.00
2018-04-06T23:25:20.754Z,101062.63
2018-04-06T23:27:54.442Z,101058.58
2018-04-06T23:30:27.226Z,101061.56
2018-04-06T23:32:59.719Z,101064.05
2018-04-06T23:35:32.198Z,101065.40
2018-04-06T23:38:04.688Z,101058.55
2018-04-06T23:40:37.163Z,101056.06
2018-04-06T23:43:09.666Z,101058.69
2018-04-06T23:45:42.256Z,101051.77
2018-04-06T23:48:21.321Z,101047.89
2018-04-06T23:50:54.955Z,101041.27
2018-04-06T23:53:27.542Z,101045.12
2018-04-06T23:56:00.129Z,101031.98
2018-04-06T23:58:32.618Z,101033.30
